sensor_id;sensor_type;location;lat;lon;timestamp;pressure;altitude;pressure_sealevel;temperature
61189;BMP280;47054;39.716;2.904;2023-08-06T00:00:57;100262.69;;;26.13
61189;BMP280;47054;39.716;2.904;2023-08-06T00:03:42;100261.69;;;26.07
61189;BMP280;47054;39.716;2.904;2023-08-06T00:06:26;100262.88;;;26.06
61189;BMP280;47054;39.716;2.904;2023-08-06T00:09:11;100246.53;;;25.94
61189;BMP280;47054;39.716;2.904;2023-08-06T00:11:55;100264.69;;;25.97
61189;BMP280;47054;39.716;2.904;2023-08-06T00:14:40;100278.59;;;25.99
61189;BMP280;47054;39.716;2.904;2023-08-06T00:17:24;100268.94;;;25.98
61189;BMP280;47054;39.716;2.904;2023-08-06T00:20:09;100265.84;;;25.96
61189;BMP280;47054;39.716;2.904;2023-08-06T00:22:54;100272.53;;;25.95
61189;BMP280;47054;39.716;2.904;2023-08-06T00:25:39;100268.66;;;25.92
61189;BMP280;47054;39.716;2.904;2023-08-06T00:28:23;100245.78;;;25.77
61189;BMP280;47054;39.716;2.904;2023-08-06T00:31:07;100259.59;;;25.83
61189;BMP280;47054;39.716;2.904;2023-08-06T00:33:53;100262.41;;;25.79
61189;BMP280;47054;39.716;2.904;2023-08-06T00:36:38;100268.69;;;25.76
61189;BMP280;47054;39.716;2.904;2023-08-06T00:39:23;100253.59;;;25.75
61189;BMP280;47054;39.716;2.904;2023-08-06T00:42:08;100253.09;;;25.80
61189;BMP280;47054;39.716;2.904;2023-08-06T00:44:53;100259.59;;;25.83
61189;BMP280;47054;39.716;2.904;2023-08-06T00:47:37;100246.09;;;25.79
61189;BMP280;47054;39.716;2.904;2023-08-06T00:50:24;100255.28;;;25.85
61189;BMP280;47054;39.716;2.904;2023-08-06T00:53:08;100260.28;;;25.87
61189;BMP280;47054;39.716;2.904;2023-08-06T00:55:53;100269.59;;;25.86
61189;BMP280;47054;39.716;2.904;2023-08-06T00:58:39;100264.16;;;25.86
61189;BMP280;47054;39.716;2.904;2023-08-06T01:01:23;100263.44;;;25.85
61189;BMP280;47054;39.716;2.904;2023-08-06T01:04:08;100263.00;;;25.87
61189;BMP280;47054;39.716;2.904;2023-08-06T01:13:19;100266.50;;;25.87
61189;BMP280;47054;39.716;2.904;2023-08-06T01:16:06;100270.38;;;25.86
61189;BMP280;47054;39.716;2.904;2023-08-06T01:18:51;100248.41;;;25.81
61189;BMP280;47054;39.716;2.904;2023-08-06T01:21:36;100263.78;;;25.87
61189;BMP280;47054;39.716;2.904;2023-08-06T01:24:20;100258.84;;;25.82
61189;BMP280;47054;39.716;2.904;2023-08-06T01:30:15;100268.88;;;25.85
61189;BMP280;47054;39.716;2.904;2023-08-06T01:33:04;100267.66;;;25.86
61189;BMP280;47054;39.716;2.904;2023-08-06T01:35:49;100260.72;;;25.85
61189;BMP280;47054;39.716;2.904;2023-08-06T01:38:35;100260.47;;;25.80
61189;BMP280;47054;39.716;2.904;2023-08-06T01:41:19;100265.88;;;25.80
61189;BMP280;47054;39.716;2.904;2023-08-06T01:44:05;100269.13;;;25.75
61189;BMP280;47054;39.716;2.904;2023-08-06T01:46:49;100277.19;;;25.78
61189;BMP280;47054;39.716;2.904;2023-08-06T01:49:34;100279.56;;;25.76
61189;BMP280;47054;39.716;2.904;2023-08-06T01:52:19;100274.91;;;25.77
61189;BMP280;47054;39.716;2.904;2023-08-06T01:55:03;100273.47;;;25.72
61189;BMP280;47054;39.716;2.904;2023-08-06T01:57:49;100281.09;;;25.77
61189;BMP280;47054;39.716;2.904;2023-08-06T02:00:33;100270.75;;;25.72
61189;BMP280;47054;39.716;2.904;2023-08-06T02:03:18;100273.72;;;25.78
61189;BMP280;47054;39.716;2.904;2023-08-06T02:06:05;100266.41;;;25.75
61189;BMP280;47054;39.716;2.904;2023-08-06T02:08:50;100262.94;;;25.74
61189;BMP280;47054;39.716;2.904;2023-08-06T02:11:34;100268.59;;;25.80
61189;BMP280;47054;39.716;2.904;2023-08-06T02:14:19;100260.47;;;25.80
61189;BMP280;47054;39.716;2.904;2023-08-06T02:17:03;100263.16;;;25.80
61189;BMP280;47054;39.716;2.904;2023-08-06T02:19:49;100261.75;;;25.75
61189;BMP280;47054;39.716;2.904;2023-08-06T02:22:33;100268.28;;;25.78
61189;BMP280;47054;39.716;2.904;2023-08-06T02:25:18;100267.19;;;25.75
61189;BMP280;47054;39.716;2.904;2023-08-06T02:28:03;100275.75;;;25.74
61189;BMP280;47054;39.716;2.904;2023-08-06T02:30:51;100276.19;;;25.72
61189;BMP280;47054;39.716;2.904;2023-08-06T02:33:36;100265.75;;;25.71
61189;BMP280;47054;39.716;2.904;2023-08-06T02:36:20;100274.72;;;25.68
61189;BMP280;47054;39.716;2.904;2023-08-06T02:39:05;100272.44;;;25.66
61189;BMP280;47054;39.716;2.904;2023-08-06T02:41:50;100252.16;;;25.55
61189;BMP280;47054;39.716;2.904;2023-08-06T02:44:35;100270.50;;;25.67
61189;BMP280;47054;39.716;2.904;2023-08-06T02:47:22;100273.19;;;25.67
61189;BMP280;47054;39.716;2.904;2023-08-06T02:50:08;100268.97;;;25.66
61189;BMP280;47054;39.716;2.904;2023-08-06T02:52:53;100263.53;;;25.66
61189;BMP280;47054;39.716;2.904;2023-08-06T02:55:37;100265.47;;;25.65
61189;BMP280;47054;39.716;2.904;2023-08-06T02:58:29;100267.34;;;25.68
61189;BMP280;47054;39.716;2.904;2023-08-06T03:01:28;100264.03;;;25.61
61189;BMP280;47054;39.716;2.904;2023-08-06T03:04:18;100261.84;;;25.56
61189;BMP280;47054;39.716;2.904;2023-08-06T03:07:04;100259.13;;;25.56
61189;BMP280;47054;39.716;2.904;2023-08-06T03:09:57;100262.59;;;25.56
61189;BMP280;47054;39.716;2.904;2023-08-06T03:12:44;100263.00;;;25.55
61189;BMP280;47054;39.716;2.904;2023-08-06T03:15:28;100260.72;;;25.53
61189;BMP280;47054;39.716;2.904;2023-08-06T03:18:17;100255.72;;;25.52
61189;BMP280;47054;39.716;2.904;2023-08-06T03:21:02;100254.63;;;25.49
61189;BMP280;47054;39.716;2.904;2023-08-06T03:23:49;100255.31;;;25.53
61189;BMP280;47054;39.716;2.904;2023-08-06T03:26:37;100252.59;;;25.53
61189;BMP280;47054;39.716;2.904;2023-08-06T03:29:23;100254.63;;;25.49
61189;BMP280;47054;39.716;2.904;2023-08-06T03:32:08;100257.28;;;25.53
61189;BMP280;47054;39.716;2.904;2023-08-06T03:34:53;100250.72;;;25.50
61189;BMP280;47054;39.716;2.904;2023-08-06T03:37:40;100257.66;;;25.51
61189;BMP280;47054;39.716;2.904;2023-08-06T03:40:25;100255.47;;;25.46
61189;BMP280;47054;39.716;2.904;2023-08-06T03:43:10;100252.00;;;25.46
61189;BMP280;47054;39.716;2.904;2023-08-06T03:45:55;100255.66;;;25.39
61189;BMP280;47054;39.716;2.904;2023-08-06T03:48:39;100248.84;;;25.31
61189;BMP280;47054;39.716;2.904;2023-08-06T03:51:24;100253.88;;;25.33
61189;BMP280;47054;39.716;2.904;2023-08-06T03:54:10;100252.41;;;25.28
61189;BMP280;47054;39.716;2.904;2023-08-06T03:56:55;100254.34;;;25.28
61189;BMP280;47054;39.716;2.904;2023-08-06T03:59:41;100253.56;;;25.27
61189;BMP280;47054;39.716;2.904;2023-08-06T04:02:25;100262.56;;;25.24
61189;BMP280;47054;39.716;2.904;2023-08-06T04:05:11;100252.56;;;25.21
61189;BMP280;47054;39.716;2.904;2023-08-06T04:07:56;100254.66;;;25.14
61189;BMP280;47054;39.716;2.904;2023-08-06T04:10:40;100272.41;;;25.18
61189;BMP280;47054;39.716;2.904;2023-08-06T04:13:25;100255.81;;;25.13
61189;BMP280;47054;39.716;2.904;2023-08-06T04:16:09;100261.34;;;25.09
61189;BMP280;47054;39.716;2.904;2023-08-06T04:18:54;100256.75;;;25.06
61189;BMP280;47054;39.716;2.904;2023-08-06T04:21:39;100257.97;;;25.05
61189;BMP280;47054;39.716;2.904;2023-08-06T04:24:24;100275.72;;;25.06
61189;BMP280;47054;39.716;2.904;2023-08-06T04:27:13;100270.00;;;25.04
61189;BMP280;47054;39.716;2.904;2023-08-06T04:29:58;100279.28;;;25.03
61189;BMP280;47054;39.716;2.904;2023-08-06T04:32:43;100271.69;;;24.98
61189;BMP280;47054;39.716;2.904;2023-08-06T04:35:30;100279.03;;;24.97
61189;BMP280;47054;39.716;2.904;2023-08-06T04:38:14;100295.31;;;24.97
61189;BMP280;47054;39.716;2.904;2023-08-06T04:40:59;100277.56;;;24.93
61189;BMP280;47054;39.716;2.904;2023-08-06T04:43:44;100283.69;;;24.97
61189;BMP280;47054;39.716;2.904;2023-08-06T04:46:28;100273.69;;;24.94
61189;BMP280;47054;39.716;2.904;2023-08-06T04:49:13;100280.56;;;24.98
61189;BMP280;47054;39.716;2.904;2023-08-06T04:51:58;100269.13;;;24.91
61189;BMP280;47054;39.716;2.904;2023-08-06T04:54:44;100281.41;;;24.95
61189;BMP280;47054;39.716;2.904;2023-08-06T04:57:29;100284.88;;;24.96
61189;BMP280;47054;39.716;2.904;2023-08-06T05:00:13;100288.34;;;24.96
61189;BMP280;47054;39.716;2.904;2023-08-06T05:02:59;100284.53;;;24.94
61189;BMP280;47054;39.716;2.904;2023-08-06T05:05:46;100277.19;;;24.94
61189;BMP280;47054;39.716;2.904;2023-08-06T05:08:30;100288.69;;;24.98
61189;BMP280;47054;39.716;2.904;2023-08-06T05:11:15;100284.41;;;25.01
61189;BMP280;47054;39.716;2.904;2023-08-06T05:13:59;100289.81;;;25.01
61189;BMP280;47054;39.716;2.904;2023-08-06T05:16:44;100290.59;;;25.02
61189;BMP280;47054;39.716;2.904;2023-08-06T05:19:28;100292.47;;;25.05
61189;BMP280;47054;39.716;2.904;2023-08-06T05:22:13;100300.16;;;25.06
61189;BMP280;47054;39.716;2.904;2023-08-06T05:24:57;100293.91;;;25.09
61189;BMP280;47054;39.716;2.904;2023-08-06T05:27:42;100296.19;;;25.11
61189;BMP280;47054;39.716;2.904;2023-08-06T05:30:27;100295.81;;;25.12
61189;BMP280;47054;39.716;2.904;2023-08-06T05:33:11;100280.69;;;25.11
61189;BMP280;47054;39.716;2.904;2023-08-06T05:35:56;100288.69;;;25.18
61189;BMP280;47054;39.716;2.904;2023-08-06T05:38:40;100287.50;;;25.19
61189;BMP280;47054;39.716;2.904;2023-08-06T05:41:25;100296.28;;;25.23
61189;BMP280;47054;39.716;2.904;2023-08-06T05:44:10;100301.66;;;25.27
61189;BMP280;47054;39.716;2.904;2023-08-06T05:46:54;100294.72;;;25.26
61189;BMP280;47054;39.716;2.904;2023-08-06T05:49:39;100294.22;;;25.31
61189;BMP280;47054;39.716;2.904;2023-08-06T05:52:23;100278.38;;;25.29
61189;BMP280;47054;39.716;2.904;2023-08-06T05:55:09;100284.81;;;25.35
61189;BMP280;47054;39.716;2.904;2023-08-06T05:57:54;100286.59;;;25.42
61189;BMP280;47054;39.716;2.904;2023-08-06T06:00:38;100276.13;;;25.40
61189;BMP280;47054;39.716;2.904;2023-08-06T06:03:23;100292.47;;;25.56
61189;BMP280;47054;39.716;2.904;2023-08-06T06:06:08;100291.25;;;25.57
61189;BMP280;47054;39.716;2.904;2023-08-06T06:08:53;100303.16;;;25.63
61189;BMP280;47054;39.716;2.904;2023-08-06T06:11:37;100299.94;;;25.68
61189;BMP280;47054;39.716;2.904;2023-08-06T06:14:22;100302.91;;;25.74
61189;BMP280;47054;39.716;2.904;2023-08-06T06:17:06;100285.16;;;25.69
61189;BMP280;47054;39.716;2.904;2023-08-06T06:19:51;100299.09;;;25.87
61189;BMP280;47054;39.716;2.904;2023-08-06T06:22:36;100298.22;;;25.90
61189;BMP280;47054;39.716;2.904;2023-08-06T06:25:21;100296.88;;;25.98
61189;BMP280;47054;39.716;2.904;2023-08-06T06:28:05;100301.38;;;26.05
61189;BMP280;47054;39.716;2.904;2023-08-06T06:30:50;100297.72;;;26.11
61189;BMP280;47054;39.716;2.904;2023-08-06T06:33:36;100308.38;;;26.18
61189;BMP280;47054;39.716;2.904;2023-08-06T06:36:21;100303.72;;;26.19
61189;BMP280;47054;39.716;2.904;2023-08-06T06:39:06;100338.00;;;26.29
61189;BMP280;47054;39.716;2.904;2023-08-06T06:41:51;100321.59;;;26.33
61189;BMP280;47054;39.716;2.904;2023-08-06T06:44:42;100328.38;;;26.41
61189;BMP280;47054;39.716;2.904;2023-08-06T06:47:27;100329.13;;;26.41
61189;BMP280;47054;39.716;2.904;2023-08-06T06:50:12;100306.38;;;26.35
61189;BMP280;47054;39.716;2.904;2023-08-06T06:52:57;100311.94;;;26.44
61189;BMP280;47054;39.716;2.904;2023-08-06T06:55:42;100323.22;;;26.59
61189;BMP280;47054;39.716;2.904;2023-08-06T06:58:26;100328.47;;;26.66
61189;BMP280;47054;39.716;2.904;2023-08-06T07:01:11;100334.47;;;26.73
61189;BMP280;47054;39.716;2.904;2023-08-06T07:03:56;100332.31;;;26.81
61189;BMP280;47054;39.716;2.904;2023-08-06T07:06:41;100332.53;;;26.86
61189;BMP280;47054;39.716;2.904;2023-08-06T07:09:26;100339.72;;;26.93
61189;BMP280;47054;39.716;2.904;2023-08-06T07:12:11;100341.50;;;26.99
61189;BMP280;47054;39.716;2.904;2023-08-06T07:14:55;100342.59;;;27.02
61189;BMP280;47054;39.716;2.904;2023-08-06T07:17:40;100349.25;;;27.13
61189;BMP280;47054;39.716;2.904;2023-08-06T19:05:32;100370.91;;;28.26
61189;BMP280;47054;39.716;2.904;2023-08-06T19:08:17;100378.16;;;28.63
61189;BMP280;47054;39.716;2.904;2023-08-06T19:11:05;100380.00;;;28.88
61189;BMP280;47054;39.716;2.904;2023-08-06T19:13:50;100394.06;;;29.08
61189;BMP280;47054;39.716;2.904;2023-08-06T19:16:36;100388.34;;;29.15
61189;BMP280;47054;39.716;2.904;2023-08-06T19:19:22;100386.72;;;29.27
61189;BMP280;47054;39.716;2.904;2023-08-06T19:22:07;100402.09;;;29.42
61189;BMP280;47054;39.716;2.904;2023-08-06T19:24:52;100402.59;;;29.50
61189;BMP280;47054;39.716;2.904;2023-08-06T19:27:38;100403.03;;;29.48
61189;BMP280;47054;39.716;2.904;2023-08-06T19:30:23;100420.22;;;29.58
61189;BMP280;47054;39.716;2.904;2023-08-06T19:33:08;100423.56;;;29.62
61189;BMP280;47054;39.716;2.904;2023-08-06T19:35:54;100413.22;;;29.57
61189;BMP280;47054;39.716;2.904;2023-08-06T19:38:39;100439.69;;;29.69
61189;BMP280;47054;39.716;2.904;2023-08-06T19:41:23;100437.25;;;29.71
61189;BMP280;47054;39.716;2.904;2023-08-06T19:44:07;100436.81;;;29.72
61189;BMP280;47054;39.716;2.904;2023-08-06T19:46:53;100439.53;;;29.72
61189;BMP280;47054;39.716;2.904;2023-08-06T19:49:37;100447.28;;;29.74
61189;BMP280;47054;39.716;2.904;2023-08-06T19:52:23;100451.84;;;29.77
61189;BMP280;47054;39.716;2.904;2023-08-06T19:55:08;100451.53;;;29.75
61189;BMP280;47054;39.716;2.904;2023-08-06T19:57:53;100465.81;;;29.79
61189;BMP280;47054;39.716;2.904;2023-08-06T20:00:38;100451.53;;;29.75
61189;BMP280;47054;39.716;2.904;2023-08-06T20:03:24;100460.34;;;29.79
61189;BMP280;47054;39.716;2.904;2023-08-06T20:06:09;100455.81;;;29.76
61189;BMP280;47054;39.716;2.904;2023-08-06T20:08:54;100466.59;;;29.79
61189;BMP280;47054;39.716;2.904;2023-08-06T20:11:38;100465.22;;;29.75
61189;BMP280;47054;39.716;2.904;2023-08-06T20:14:23;100479.47;;;29.79
61189;BMP280;47054;39.716;2.904;2023-08-06T20:17:08;100473.13;;;29.73
61189;BMP280;47054;39.716;2.904;2023-08-06T20:19:53;100479.63;;;29.75
61189;BMP280;47054;39.716;2.904;2023-08-06T20:22:38;100481.59;;;29.75
61189;BMP280;47054;39.716;2.904;2023-08-06T20:25:23;100486.63;;;29.76
61189;BMP280;47054;39.716;2.904;2023-08-06T20:28:10;100490.56;;;29.75
61189;BMP280;47054;39.716;2.904;2023-08-06T20:30:54;100492.25;;;29.73
61189;BMP280;47054;39.716;2.904;2023-08-06T20:33:43;100486.00;;;29.72
61189;BMP280;47054;39.716;2.904;2023-08-06T20:36:27;100488.88;;;29.69
61189;BMP280;47054;39.716;2.904;2023-08-06T20:39:12;100485.50;;;29.65
61189;BMP280;47054;39.716;2.904;2023-08-06T20:41:56;100487.75;;;29.57
61189;BMP280;47054;39.716;2.904;2023-08-06T20:44:41;100494.00;;;29.58
61189;BMP280;47054;39.716;2.904;2023-08-06T20:47:25;100490.78;;;29.50
61189;BMP280;47054;39.716;2.904;2023-08-06T20:50:10;100508.09;;;29.56
61189;BMP280;47054;39.716;2.904;2023-08-06T20:52:55;100507.03;;;29.54
61189;BMP280;47054;39.716;2.904;2023-08-06T20:55:39;100506.59;;;29.55
61189;BMP280;47054;39.716;2.904;2023-08-06T20:58:24;100507.03;;;29.54
61189;BMP280;47054;39.716;2.904;2023-08-06T21:01:08;100502.78;;;29.53
61189;BMP280;47054;39.716;2.904;2023-08-06T21:03:53;100504.44;;;29.50
61189;BMP280;47054;39.716;2.904;2023-08-06T21:06:37;100510.34;;;29.49
61189;BMP280;47054;39.716;2.904;2023-08-06T21:09:22;100515.94;;;29.45
61189;BMP280;47054;39.716;2.904;2023-08-06T21:12:06;100511.53;;;29.39
61189;BMP280;47054;39.716;2.904;2023-08-06T21:14:51;100514.88;;;29.43
61189;BMP280;47054;39.716;2.904;2023-08-06T21:17:36;100515.31;;;29.41
61189;BMP280;47054;39.716;2.904;2023-08-06T21:20:21;100518.06;;;29.41
61189;BMP280;47054;39.716;2.904;2023-08-06T21:23:06;100515.00;;;29.39
61189;BMP280;47054;39.716;2.904;2023-08-06T21:25:58;100518.63;;;29.36
61189;BMP280;47054;39.716;2.904;2023-08-06T21:28:43;100516.06;;;29.33
61189;BMP280;47054;39.716;2.904;2023-08-06T21:31:28;100517.66;;;29.30
61189;BMP280;47054;39.716;2.904;2023-08-06T21:34:12;100514.00;;;29.24
61189;BMP280;47054;39.716;2.904;2023-08-06T21:36:57;100527.66;;;29.24
61189;BMP280;47054;39.716;2.904;2023-08-06T21:39:41;100519.41;;;29.15
61189;BMP280;47054;39.716;2.904;2023-08-06T21:42:26;100527.91;;;29.17
61189;BMP280;47054;39.716;2.904;2023-08-06T21:45:11;100522.56;;;29.13
61189;BMP280;47054;39.716;2.904;2023-08-06T21:47:55;100530.47;;;29.12
61189;BMP280;47054;39.716;2.904;2023-08-06T21:50:40;100530.47;;;29.12
61189;BMP280;47054;39.716;2.904;2023-08-06T21:53:25;100533.63;;;29.10
61189;BMP280;47054;39.716;2.904;2023-08-06T21:56:10;100536.50;;;29.06
61189;BMP280;47054;39.716;2.904;2023-08-06T21:58:56;100531.16;;;29.03
61189;BMP280;47054;39.716;2.904;2023-08-06T22:01:42;100537.94;;;28.98
61189;BMP280;47054;39.716;2.904;2023-08-06T22:04:26;100515.50;;;28.82
61189;BMP280;47054;39.716;2.904;2023-08-06T22:07:11;100536.66;;;28.90
61189;BMP280;47054;39.716;2.904;2023-08-06T22:09:55;100541.16;;;28.84
61189;BMP280;47054;39.716;2.904;2023-08-06T22:12:40;100538.22;;;28.79
61189;BMP280;47054;39.716;2.904;2023-08-06T22:15:24;100545.03;;;28.74
61189;BMP280;47054;39.716;2.904;2023-08-06T22:18:10;100537.94;;;28.64
61189;BMP280;47054;39.716;2.904;2023-08-06T22:20:56;100537.63;;;28.62
61189;BMP280;47054;39.716;2.904;2023-08-06T22:23:41;100534.25;;;28.58
61189;BMP280;47054;39.716;2.904;2023-08-06T22:26:27;100547.13;;;28.58
61189;BMP280;47054;39.716;2.904;2023-08-06T22:29:11;100550.72;;;28.55
61189;BMP280;47054;39.716;2.904;2023-08-06T22:31:57;100551.06;;;28.57
61189;BMP280;47054;39.716;2.904;2023-08-06T22:34:43;100560.88;;;28.54
61189;BMP280;47054;39.716;2.904;2023-08-06T22:37:27;100557.50;;;28.50
61189;BMP280;47054;39.716;2.904;2023-08-06T22:40:13;100564.97;;;28.50
61189;BMP280;47054;39.716;2.904;2023-08-06T22:42:58;100555.03;;;28.43
61189;BMP280;47054;39.716;2.904;2023-08-06T22:45:42;100568.56;;;28.47
61189;BMP280;47054;39.716;2.904;2023-08-06T22:48:27;100562.00;;;28.44
61189;BMP280;47054;39.716;2.904;2023-08-06T22:51:14;100557.75;;;28.43
61189;BMP280;47054;39.716;2.904;2023-08-06T22:53:59;100556.47;;;28.35
61189;BMP280;47054;39.716;2.904;2023-08-06T22:56:45;100565.28;;;28.39
61189;BMP280;47054;39.716;2.904;2023-08-06T22:59:29;100563.31;;;28.40
61189;BMP280;47054;39.716;2.904;2023-08-06T23:02:14;100572.25;;;28.40
61189;BMP280;47054;39.716;2.904;2023-08-06T23:04:58;100566.50;;;28.38
61189;BMP280;47054;39.716;2.904;2023-08-06T23:07:43;100562.03;;;28.32
61189;BMP280;47054;39.716;2.904;2023-08-06T23:10:28;100554.81;;;28.25
61189;BMP280;47054;39.716;2.904;2023-08-06T23:13:13;100567.00;;;28.33
61189;BMP280;47054;39.716;2.904;2023-08-06T23:15:57;100577.19;;;28.33
61189;BMP280;47054;39.716;2.904;2023-08-06T23:18:42;100574.13;;;28.31
61189;BMP280;47054;39.716;2.904;2023-08-06T23:21:27;100567.16;;;28.30
61189;BMP280;47054;39.716;2.904;2023-08-06T23:24:11;100576.53;;;28.29
61189;BMP280;47054;39.716;2.904;2023-08-06T23:26:57;100558.09;;;28.20
61189;BMP280;47054;39.716;2.904;2023-08-06T23:29:41;100567.06;;;28.21
61189;BMP280;47054;39.716;2.904;2023-08-06T23:32:27;100571.63;;;28.24
61189;BMP280;47054;39.716;2.904;2023-08-06T23:35:14;100571.72;;;28.20
61189;BMP280;47054;39.716;2.904;2023-08-06T23:37:58;100570.31;;;28.16
61189;BMP280;47054;39.716;2.904;2023-08-06T23:40:43;100571.06;;;28.16
61189;BMP280;47054;39.716;2.904;2023-08-06T23:43:28;100580.00;;;28.17
61189;BMP280;47054;39.716;2.904;2023-08-06T23:46:13;100577.72;;;28.15
61189;BMP280;47054;39.716;2.904;2023-08-06T23:48:57;100573.16;;;28.12
61189;BMP280;47054;39.716;2.904;2023-08-06T23:51:42;100573.88;;;28.13
61189;BMP280;47054;39.716;2.904;2023-08-06T23:54:27;100568.53;;;28.09
61189;BMP280;47054;39.716;2.904;2023-08-06T23:57:11;100575.25;;;28.08
61189;BMP280;47054;39.716;2.904;2023-08-06T23:59:56;100579.03;;;28.11
